Time;durP1;ratioP1;P1;durP2;ratioP2;P2;SDS_P1;SDS_P2;PMS_P1;PMS_P2;Temp;Humidity;BMP_temperature;BMP_pressure;BME280_temperature;BME280_humidity;BME280_pressure;Samples;Min_cycle;Max_cycle;Signal;HPM_P1;HPM_P2
2024/01/30 00:02:14;;;;;;;1.85;1.52;;;22.70;50.80;;;;;;4951454;27;88222;-57
2024/01/30 00:04:40;;;;;;;2.47;1.63;;;22.60;50.80;;;;;;4957877;28;87741;-57
2024/01/30 00:07:06;;;;;;;2.17;1.35;;;22.60;50.70;;;;;;4956548;28;87752;-57
2024/01/30 00:09:31;;;;;;;2.65;1.67;;;22.60;50.80;;;;;;4953441;27;87979;-57
2024/01/30 00:11:58;;;;;;;1.88;1.50;;;22.60;50.70;;;;;;4950672;28;88718;-56
2024/01/30 00:14:25;;;;;;;2.63;1.65;;;22.60;50.90;;;;;;4969689;28;87518;-58
2024/01/30 00:16:52;;;;;;;2.92;1.77;;;22.50;50.80;;;;;;4953511;28;87678;-57
2024/01/30 00:19:18;;;;;;;2.38;1.92;;;22.50;50.70;;;;;;4955791;28;89431;-58
2024/01/30 00:21:44;;;;;;;2.53;1.90;;;22.50;50.80;;;;;;4955273;28;89055;-57
2024/01/30 00:24:10;;;;;;;2.80;1.83;;;22.50;50.80;;;;;;4954396;28;87643;-58
2024/01/30 00:26:36;;;;;;;2.83;1.48;;;22.50;50.80;;;;;;4954216;28;87478;-58
2024/01/30 00:29:02;;;;;;;2.97;1.95;;;22.40;50.80;;;;;;4952466;27;89773;-57
2024/01/30 00:31:28;;;;;;;4.70;1.50;;;22.40;50.90;;;;;;4957058;28;87321;-56
2024/01/30 00:33:54;;;;;;;2.33;1.63;;;22.40;50.80;;;;;;4950802;28;87841;-57
2024/01/30 00:36:19;;;;;;;3.83;1.80;;;22.40;50.80;;;;;;4954333;28;87698;-56
2024/01/30 00:38:45;;;;;;;1.83;1.60;;;22.40;50.90;;;;;;4958643;27;88211;-57
2024/01/30 00:41:11;;;;;;;1.95;1.27;;;22.30;50.90;;;;;;4955919;27;87951;-58
2024/01/30 00:43:37;;;;;;;2.08;1.55;;;22.30;50.90;;;;;;4955097;28;88392;-56
2024/01/30 00:46:03;;;;;;;1.33;1.13;;;22.30;51.00;;;;;;4956332;28;87377;-57
2024/01/30 00:48:29;;;;;;;2.60;1.95;;;22.30;51.00;;;;;;4957326;28;88635;-57
2024/01/30 00:50:55;;;;;;;1.65;1.40;;;22.30;51.00;;;;;;4953019;28;88078;-57
2024/01/30 00:53:20;;;;;;;2.80;1.75;;;22.20;51.00;;;;;;4955398;28;88045;-58
2024/01/30 00:55:47;;;;;;;1.63;1.25;;;22.20;51.00;;;;;;4954005;28;87898;-58
2024/01/30 00:58:13;;;;;;;2.00;1.33;;;22.20;50.80;;;;;;4954003;28;88390;-58
2024/01/30 01:00:39;;;;;;;2.65;1.48;;;22.20;50.80;;;;;;4954690;28;87392;-58
2024/01/30 01:03:05;;;;;;;2.25;1.70;;;22.20;50.90;;;;;;4951948;28;88103;-58
2024/01/30 01:05:31;;;;;;;1.40;1.30;;;22.20;51.00;;;;;;4955953;28;87752;-58
2024/01/30 01:07:58;;;;;;;1.95;1.50;;;22.20;50.90;;;;;;4954318;28;90206;-57
2024/01/30 01:10:24;;;;;;;2.00;1.30;;;22.10;50.90;;;;;;4955678;28;88222;-58
2024/01/30 01:12:50;;;;;;;3.17;1.90;;;22.10;50.90;;;;;;4949547;28;87908;-56
2024/01/30 01:15:16;;;;;;;2.08;1.55;;;22.10;51.00;;;;;;4947412;28;87727;-57
2024/01/30 01:17:42;;;;;;;3.15;1.95;;;22.10;51.00;;;;;;4949886;28;88755;-57
2024/01/30 01:20:10;;;;;;;2.60;1.40;;;22.10;51.60;;;;;;4954410;28;87729;-58
2024/01/30 01:22:38;;;;;;;2.33;1.48;;;22.10;51.00;;;;;;4954785;28;87310;-57
2024/01/30 01:25:06;;;;;;;2.22;1.58;;;22.10;51.00;;;;;;4953277;28;87572;-57
2024/01/30 01:27:34;;;;;;;1.75;1.50;;;22.00;50.90;;;;;;4950847;28;88381;-57
2024/01/30 01:30:00;;;;;;;3.05;2.05;;;22.00;50.90;;;;;;4952438;28;89155;-57
2024/01/30 01:32:26;;;;;;;2.05;1.85;;;22.00;51.00;;;;;;4955771;28;88508;-57
2024/01/30 01:34:53;;;;;;;4.00;1.60;;;22.00;50.80;;;;;;4989435;28;87920;-56
2024/01/30 01:37:21;;;;;;;2.38;1.40;;;21.90;50.80;;;;;;4957482;28;88012;-57
2024/01/30 01:39:47;;;;;;;1.53;1.30;;;21.90;50.90;;;;;;4958670;27;90682;-57
2024/01/30 01:42:14;;;;;;;1.92;1.42;;;21.90;50.80;;;;;;4956801;28;87481;-58
2024/01/30 01:44:40;;;;;;;3.00;1.45;;;21.90;50.90;;;;;;4942443;28;87667;-57
2024/01/30 01:47:06;;;;;;;1.80;1.30;;;21.90;51.50;;;;;;4959114;28;87565;-57
2024/01/30 01:49:32;;;;;;;2.45;1.45;;;21.90;50.80;;;;;;4960701;28;87864;-57
2024/01/30 01:51:59;;;;;;;2.15;1.50;;;21.90;50.80;;;;;;4959706;27;88529;-57
2024/01/30 01:54:27;;;;;;;2.30;1.42;;;21.80;50.80;;;;;;4960034;28;88001;-58
2024/01/30 01:56:53;;;;;;;1.60;1.40;;;21.80;50.80;;;;;;4955624;28;90401;-58
2024/01/30 01:59:20;;;;;;;1.60;1.50;;;21.90;50.90;;;;;;4959835;28;88326;-58
2024/01/30 02:01:49;;;;;;;2.13;1.38;;;21.80;50.90;;;;;;4958312;28;87522;-57
2024/01/30 02:04:15;;;;;;;2.93;1.53;;;21.80;50.80;;;;;;4955052;28;88296;-58
2024/01/30 02:06:42;;;;;;;2.72;1.60;;;21.80;50.90;;;;;;4956756;28;88428;-57
2024/01/30 02:09:09;;;;;;;2.20;1.70;;;21.80;51.00;;;;;;4955493;28;87400;-57
2024/01/30 02:11:35;;;;;;;1.80;1.45;;;21.80;50.90;;;;;;4955558;28;87639;-58
2024/01/30 02:14:04;;;;;;;2.05;1.42;;;21.80;50.80;;;;;;4958813;28;87196;-56
2024/01/30 02:16:31;;;;;;;2.90;1.73;;;21.80;50.90;;;;;;4973568;28;92986;-57
2024/01/30 02:18:57;;;;;;;2.00;1.58;;;21.70;50.80;;;;;;4958725;28;87804;-58
2024/01/30 02:21:23;;;;;;;1.73;1.30;;;21.70;50.90;;;;;;4956834;28;87952;-57
2024/01/30 02:23:50;;;;;;;1.70;1.40;;;21.70;51.00;;;;;;4960753;27;87814;-58
2024/01/30 02:26:16;;;;;;;2.70;1.40;;;21.70;50.90;;;;;;4958417;28;87847;-58
2024/01/30 02:28:41;;;;;;;1.45;1.30;;;21.70;51.00;;;;;;4955937;28;88226;-59
2024/01/30 02:31:08;;;;;;;1.83;1.40;;;21.70;51.20;;;;;;4956725;27;87557;-59
2024/01/30 02:33:33;;;;;;;2.83;1.70;;;21.70;51.00;;;;;;4956293;28;89310;-59
2024/01/30 02:36:00;;;;;;;1.60;1.40;;;21.60;51.00;;;;;;4987372;28;91048;-58
2024/01/30 02:38:26;;;;;;;3.80;1.52;;;21.70;51.00;;;;;;4954404;28;88090;-58
2024/01/30 02:40:52;;;;;;;1.65;1.40;;;21.60;50.90;;;;;;4957482;28;87753;-59
2024/01/30 02:43:19;;;;;;;1.90;1.48;;;21.60;51.00;;;;;;4957892;28;87050;-58
2024/01/30 02:45:45;;;;;;;1.70;1.45;;;21.60;51.00;;;;;;4957794;27;88846;-59
2024/01/30 02:48:11;;;;;;;2.20;1.73;;;21.60;51.00;;;;;;4957327;28;91576;-59
2024/01/30 02:50:37;;;;;;;2.47;1.50;;;21.60;50.90;;;;;;4985832;28;87286;-58
2024/01/30 02:53:03;;;;;;;1.60;1.50;;;21.60;50.90;;;;;;4953731;27;87689;-56
2024/01/30 02:55:29;;;;;;;1.70;1.50;;;21.60;51.00;;;;;;4987966;28;88926;-58
2024/01/30 02:57:55;;;;;;;2.42;1.40;;;21.50;50.90;;;;;;4948148;28;88630;-56
2024/01/30 03:00:21;;;;;;;1.65;1.52;;;21.50;51.00;;;;;;4959751;28;87321;-58
2024/01/30 03:02:47;;;;;;;1.90;1.50;;;21.50;50.80;;;;;;4955762;28;87076;-58
2024/01/30 03:05:13;;;;;;;2.13;1.50;;;21.50;51.00;;;;;;4955351;28;88892;-58
2024/01/30 03:07:38;;;;;;;1.92;1.40;;;21.50;50.90;;;;;;4957574;28;87916;-58
2024/01/30 03:10:05;;;;;;;1.95;1.45;;;21.50;50.90;;;;;;4954139;28;88838;-59
2024/01/30 03:12:32;;;;;;;2.15;1.40;;;21.50;51.00;;;;;;4946675;28;88229;-58
2024/01/30 03:14:57;;;;;;;1.90;1.45;;;21.50;50.90;;;;;;4951184;28;87397;-57
2024/01/30 03:17:24;;;;;;;2.38;1.80;;;21.50;51.00;;;;;;4956756;28;87804;-58
2024/01/30 03:19:51;;;;;;;2.03;1.60;;;21.40;51.00;;;;;;4958386;28;88077;-57
2024/01/30 03:22:17;;;;;;;2.42;1.67;;;21.40;50.90;;;;;;4958320;28;87475;-58
2024/01/30 03:24:43;;;;;;;3.47;2.03;;;21.50;51.00;;;;;;4939501;28;88657;-59
2024/01/30 03:27:09;;;;;;;1.65;1.30;;;21.50;50.90;;;;;;4937348;28;87418;-58
2024/01/30 03:29:35;;;;;;;1.83;1.55;;;21.40;51.10;;;;;;4957763;28;87328;-58
2024/01/30 03:32:03;;;;;;;2.67;1.50;;;21.40;51.00;;;;;;4962958;28;88324;-58
2024/01/30 03:34:29;;;;;;;2.10;1.80;;;21.40;51.00;;;;;;4953436;28;93212;-59
2024/01/30 03:36:55;;;;;;;2.72;1.58;;;21.40;51.10;;;;;;4952600;28;89705;-58
2024/01/30 03:39:22;;;;;;;1.90;1.70;;;21.40;50.90;;;;;;4957003;28;87555;-58
2024/01/30 03:41:47;;;;;;;2.40;1.38;;;21.30;51.00;;;;;;4954985;27;87766;-59
2024/01/30 03:44:13;;;;;;;2.65;1.67;;;21.40;51.00;;;;;;4957204;28;87967;-59
2024/01/30 03:46:38;;;;;;;1.58;1.20;;;21.40;51.00;;;;;;4959738;28;87593;-58
2024/01/30 03:49:04;;;;;;;2.03;1.63;;;21.40;51.00;;;;;;4954629;28;87577;-58
2024/01/30 03:51:30;;;;;;;2.10;1.67;;;21.30;51.00;;;;;;4956848;28;88938;-59
2024/01/30 03:53:55;;;;;;;2.63;2.00;;;21.30;50.80;;;;;;4957143;27;88815;-58
2024/01/30 03:56:21;;;;;;;1.83;1.40;;;21.30;51.00;;;;;;4954348;27;90044;-59
2024/01/30 03:58:47;;;;;;;1.80;1.60;;;21.30;51.10;;;;;;4957278;28;89074;-58
2024/01/30 04:01:15;;;;;;;1.70;1.52;;;21.30;50.90;;;;;;4956180;28;87851;-59
2024/01/30 04:03:43;;;;;;;2.40;1.53;;;21.30;51.00;;;;;;4988175;28;88594;-59
2024/01/30 04:06:09;;;;;;;2.03;1.27;;;21.30;50.90;;;;;;4971020;28;89450;-58
2024/01/30 04:08:35;;;;;;;1.27;1.17;;;21.30;51.00;;;;;;4959827;28;87165;-58
2024/01/30 04:11:07;;;;;;;1.50;1.40;;;21.30;50.90;;;;;;4955660;28;88023;-58
2024/01/30 04:13:33;;;;;;;1.50;1.40;;;21.30;51.00;;;;;;4958605;28;92371;-58
2024/01/30 04:16:02;;;;;;;1.58;1.48;;;21.30;51.10;;;;;;4951221;28;87843;-58
2024/01/30 04:18:28;;;;;;;2.03;1.40;;;21.30;50.90;;;;;;4957834;27;88470;-58
2024/01/30 04:20:54;;;;;;;1.98;1.48;;;21.20;51.00;;;;;;4956720;28;87690;-58
2024/01/30 04:26:43;;;;;;;1.95;1.45;;;21.20;50.90;;;;;;4953762;27;88654;-56
2024/01/30 04:29:09;;;;;;;1.85;1.30;;;21.20;51.00;;;;;;4956325;28;87718;-59
2024/01/30 04:31:37;;;;;;;1.40;1.20;;;21.20;51.10;;;;;;4943710;28;90389;-59
2024/01/30 04:34:02;;;;;;;2.28;1.40;;;21.20;51.00;;;;;;4955195;28;88089;-58
2024/01/30 04:36:28;;;;;;;2.72;1.40;;;21.20;50.90;;;;;;4957299;28;87494;-56
2024/01/30 04:38:55;;;;;;;1.40;1.20;;;21.20;50.90;;;;;;4953971;28;87533;-58
2024/01/30 04:41:21;;;;;;;1.98;1.55;;;21.20;50.90;;;;;;4952455;28;86705;-59
2024/01/30 04:43:47;;;;;;;2.20;1.40;;;21.20;50.80;;;;;;4953938;28;90172;-56
2024/01/30 04:46:12;;;;;;;2.30;1.50;;;21.20;50.90;;;;;;4954149;28;88817;-58
2024/01/30 04:48:38;;;;;;;1.73;1.40;;;21.20;51.00;;;;;;4955424;28;87997;-59
2024/01/30 04:51:04;;;;;;;1.52;1.40;;;21.20;50.90;;;;;;4954454;28;87312;-59
2024/01/30 04:53:31;;;;;;;1.80;1.40;;;21.20;50.90;;;;;;4955583;28;90547;-58
2024/01/30 04:55:58;;;;;;;2.10;1.70;;;21.10;50.80;;;;;;4958669;28;87907;-59
2024/01/30 04:58:24;;;;;;;1.33;1.13;;;21.10;50.80;;;;;;4949242;28;87410;-58
2024/01/30 05:00:51;;;;;;;1.58;1.48;;;21.10;50.90;;;;;;4951604;28;87539;-58
2024/01/30 05:03:18;;;;;;;1.52;1.25;;;21.10;50.80;;;;;;4954295;28;88172;-58
2024/01/30 05:05:45;;;;;;;2.05;1.30;;;21.10;50.80;;;;;;4950638;28;87837;-58
2024/01/30 05:08:11;;;;;;;1.83;1.58;;;21.10;50.90;;;;;;4954474;28;87740;-59
2024/01/30 05:10:37;;;;;;;1.85;1.25;;;21.10;50.80;;;;;;4954817;28;87237;-58
2024/01/30 05:13:03;;;;;;;2.25;1.63;;;21.10;50.80;;;;;;4952279;28;89240;-59
2024/01/30 05:15:29;;;;;;;1.38;1.27;;;21.10;50.80;;;;;;4972698;28;88175;-58
2024/01/30 05:17:56;;;;;;;2.45;1.38;;;21.10;50.80;;;;;;4954745;28;87704;-58
2024/01/30 05:20:22;;;;;;;1.67;1.40;;;21.10;50.90;;;;;;4955389;28;87610;-57
2024/01/30 05:22:48;;;;;;;1.75;1.48;;;21.10;50.90;;;;;;4958233;28;87620;-59
2024/01/30 05:25:13;;;;;;;1.60;1.50;;;21.10;50.80;;;;;;4953998;28;89105;-58
2024/01/30 05:27:39;;;;;;;1.48;1.38;;;21.10;50.90;;;;;;4954933;28;87616;-58
2024/01/30 05:30:06;;;;;;;1.65;1.35;;;21.00;50.80;;;;;;4956238;28;87222;-59
2024/01/30 05:32:32;;;;;;;1.38;1.10;;;21.00;50.90;;;;;;4957893;28;88346;-58
2024/01/30 05:34:58;;;;;;;1.20;1.10;;;21.00;50.90;;;;;;4956837;27;87544;-59
2024/01/30 05:37:24;;;;;;;1.40;1.20;;;21.00;51.00;;;;;;4959418;28;88521;-56
2024/01/30 05:40:42;;;;;;;2.20;1.63;;;21.00;50.80;;;;;;4951876;28;87768;-59
2024/01/30 05:43:08;;;;;;;1.35;1.25;;;21.00;50.90;;;;;;4954232;28;87064;-59
2024/01/30 05:45:35;;;;;;;1.63;1.38;;;21.00;50.90;;;;;;4947540;28;88440;-57
2024/01/30 05:48:01;;;;;;;1.85;1.40;;;21.00;50.80;;;;;;4953814;28;87283;-58
2024/01/30 05:50:27;;;;;;;1.30;1.15;;;21.00;50.90;;;;;;4954591;28;87852;-56
2024/01/30 05:52:53;;;;;;;1.85;1.20;;;21.00;50.90;;;;;;4953302;28;89246;-59
2024/01/30 05:55:18;;;;;;;1.75;1.45;;;21.00;50.80;;;;;;4955112;28;87626;-57
2024/01/30 05:57:44;;;;;;;1.55;1.38;;;21.00;50.90;;;;;;4954498;28;87786;-59
2024/01/30 06:00:10;;;;;;;1.65;1.38;;;21.00;50.90;;;;;;4949757;27;86956;-58
2024/01/30 06:02:36;;;;;;;3.03;1.48;;;21.00;50.80;;;;;;4954153;28;89147;-59
2024/01/30 06:05:03;;;;;;;1.42;1.30;;;21.00;50.80;;;;;;4955882;28;88723;-58
2024/01/30 06:07:29;;;;;;;1.83;1.30;;;21.00;51.10;;;;;;4955834;28;87683;-56
2024/01/30 06:09:54;;;;;;;2.15;1.52;;;20.90;50.80;;;;;;4955949;28;88084;-58
2024/01/30 06:12:21;;;;;;;1.75;1.30;;;20.90;50.90;;;;;;4953322;28;87797;-59
2024/01/30 06:14:48;;;;;;;1.40;1.30;;;20.90;50.80;;;;;;4986958;28;88233;-58
2024/01/30 06:17:15;;;;;;;1.20;1.10;;;20.90;51.00;;;;;;4953693;28;87771;-59
2024/01/30 06:19:41;;;;;;;1.58;1.20;;;20.90;50.80;;;;;;4961753;28;87097;-59
2024/01/30 06:22:07;;;;;;;1.45;1.20;;;20.90;51.10;;;;;;4958052;28;88138;-58
2024/01/30 06:24:34;;;;;;;1.50;1.40;;;20.90;50.90;;;;;;4959542;27;87961;-58
2024/01/30 06:27:00;;;;;;;1.48;1.23;;;20.90;50.90;;;;;;4959886;28;88705;-57
2024/01/30 06:29:26;;;;;;;1.98;1.27;;;20.90;50.90;;;;;;4952417;28;87338;-58
2024/01/30 06:31:52;;;;;;;1.42;1.33;;;20.90;50.90;;;;;;4956569;28;88256;-58
2024/01/30 06:34:19;;;;;;;2.58;1.48;;;20.90;50.90;;;;;;4956246;28;88449;-58
2024/01/30 06:36:45;;;;;;;1.33;1.23;;;20.90;50.90;;;;;;4955291;28;87346;-60
2024/01/30 06:39:11;;;;;;;1.58;1.40;;;20.90;51.00;;;;;;4956807;28;87492;-58
2024/01/30 06:41:37;;;;;;;1.52;1.27;;;20.80;51.00;;;;;;4957663;28;88617;-59
2024/01/30 06:44:08;;;;;;;1.45;1.10;;;20.80;51.00;;;;;;4956216;28;86852;-58
2024/01/30 06:46:34;;;;;;;2.05;1.30;;;20.90;51.00;;;;;;4959960;28;87388;-59
2024/01/30 06:48:59;;;;;;;2.13;1.58;;;20.80;51.00;;;;;;4955079;27;87570;-59
2024/01/30 06:51:25;;;;;;;1.60;1.20;;;20.80;50.90;;;;;;4954958;28;89468;-58
2024/01/30 06:53:51;;;;;;;1.40;1.30;;;20.80;51.00;;;;;;4959434;27;88841;-57
2024/01/30 06:56:20;;;;;;;1.65;1.20;;;20.80;51.00;;;;;;4958149;27;87513;-58
2024/01/30 06:58:49;;;;;;;;;;;20.80;51.10;;;;;;4961000;28;87955;-58
2024/01/30 07:01:21;;;;;;;1.92;1.33;;;20.80;51.00;;;;;;4957065;28;88058;-58
2024/01/30 07:03:47;;;;;;;1.55;1.00;;;20.80;51.50;;;;;;4952703;28;88136;-59
2024/01/30 07:06:14;;;;;;;2.08;1.45;;;20.80;51.00;;;;;;4956112;28;87928;-58
2024/01/30 07:08:40;;;;;;;2.35;1.52;;;20.80;51.00;;;;;;4959125;28;86971;-57
2024/01/30 07:11:06;;;;;;;1.73;1.20;;;20.80;50.90;;;;;;4975707;28;87905;-58
2024/01/30 07:13:32;;;;;;;1.45;1.23;;;20.80;51.00;;;;;;4958478;28;90936;-56
2024/01/30 07:15:58;;;;;;;1.23;1.10;;;20.80;51.00;;;;;;4956002;28;87962;-58
2024/01/30 07:18:24;;;;;;;1.80;1.27;;;20.80;50.90;;;;;;4959552;28;87536;-59
2024/01/30 07:20:50;;;;;;;1.88;1.50;;;20.80;50.90;;;;;;4987706;28;87902;-59
2024/01/30 07:23:17;;;;;;;1.50;1.40;;;20.70;50.90;;;;;;4952628;27;90517;-59
2024/01/30 07:25:49;;;;;;;1.30;1.17;;;20.70;50.90;;;;;;4957882;28;87123;-59
2024/01/30 07:28:18;;;;;;;1.27;1.17;;;20.70;50.90;;;;;;4938517;28;88081;-59
2024/01/30 07:30:44;;;;;;;3.30;1.63;;;20.70;50.80;;;;;;4955599;28;88743;-58
2024/01/30 07:33:09;;;;;;;1.95;1.50;;;20.80;50.90;;;;;;4960786;28;87785;-59
2024/01/30 07:35:36;;;;;;;1.30;1.20;;;20.70;51.00;;;;;;4951901;28;87715;-57
2024/01/30 07:38:02;;;;;;;1.60;1.50;;;20.70;51.00;;;;;;4958361;28;89734;-59
2024/01/30 07:40:28;;;;;;;1.50;1.40;;;20.70;51.00;;;;;;4990121;28;93752;-58
2024/01/30 07:42:54;;;;;;;2.65;1.35;;;20.70;51.00;;;;;;4953891;28;88307;-58
2024/01/30 07:45:24;;;;;;;2.05;1.33;;;20.70;51.00;;;;;;4955912;27;87103;-58
2024/01/30 07:47:52;;;;;;;1.20;1.10;;;20.70;50.90;;;;;;4953745;27;89730;-58
2024/01/30 07:50:19;;;;;;;1.30;1.20;;;20.70;50.90;;;;;;4959315;27;89634;-59
2024/01/30 07:52:45;;;;;;;2.08;1.52;;;20.70;50.80;;;;;;4956413;28;87840;-58
2024/01/30 07:55:13;;;;;;;1.63;1.27;;;20.70;50.90;;;;;;4955383;28;87780;-58
2024/01/30 07:57:39;;;;;;;1.48;1.13;;;20.70;50.90;;;;;;4959723;28;86589;-57
2024/01/30 08:00:07;;;;;;;1.63;1.10;;;20.70;50.80;;;;;;4956434;28;88086;-57
2024/01/30 08:02:33;;;;;;;1.08;0.98;;;20.70;50.80;;;;;;4955278;27;88335;-59
2024/01/30 08:04:58;;;;;;;1.40;1.30;;;20.70;50.80;;;;;;4957670;28;87852;-57
2024/01/30 08:07:25;;;;;;;3.47;1.55;;;20.60;51.00;;;;;;4954349;28;87424;-58
2024/01/30 08:09:51;;;;;;;2.38;1.30;;;20.70;51.10;;;;;;4984824;28;88863;-59
2024/01/30 08:12:17;;;;;;;2.72;1.20;;;20.70;51.20;;;;;;4956087;27;88295;-58
2024/01/30 08:14:43;;;;;;;2.38;1.13;;;20.70;51.10;;;;;;4955852;27;87204;-58
2024/01/30 08:17:09;;;;;;;2.20;1.45;;;20.80;51.20;;;;;;4956887;28;88022;-59
2024/01/30 08:19:35;;;;;;;1.50;1.40;;;20.80;51.90;;;;;;4957420;28;88190;-58
2024/01/30 08:22:00;;;;;;;1.40;1.30;;;21.00;51.90;;;;;;4960840;28;87871;-58
2024/01/30 08:24:31;;;;;;;1.33;1.13;;;21.10;52.10;;;;;;4955530;28;86919;-59
2024/01/30 08:26:58;;;;;;;1.35;1.25;;;21.20;52.10;;;;;;4952638;28;87335;-59
2024/01/30 08:29:24;;;;;;;2.15;1.20;;;21.30;52.20;;;;;;4955257;28;88879;-59
2024/01/30 08:31:50;;;;;;;3.63;1.30;;;21.40;52.30;;;;;;4953816;28;89702;-58
2024/01/30 08:34:16;;;;;;;1.70;1.60;;;21.40;52.30;;;;;;4956641;28;87579;-59
2024/01/30 08:36:41;;;;;;;2.08;1.70;;;21.50;52.10;;;;;;4949663;28;87722;-59
2024/01/30 08:39:08;;;;;;;2.75;1.67;;;21.60;52.30;;;;;;4953319;28;89910;-59
2024/01/30 08:41:34;;;;;;;1.50;1.33;;;21.60;52.20;;;;;;4954609;28;88063;-57
2024/01/30 08:44:00;;;;;;;2.55;1.48;;;21.70;52.00;;;;;;4956075;28;90290;-59
2024/01/30 08:46:25;;;;;;;1.63;1.30;;;21.80;52.10;;;;;;4953668;28;86918;-59
2024/01/30 08:48:51;;;;;;;1.45;1.30;;;21.80;51.80;;;;;;4952866;28;88687;-59
2024/01/30 08:51:17;;;;;;;1.42;1.13;;;21.90;51.90;;;;;;4952479;27;87297;-59
2024/01/30 08:53:42;;;;;;;1.65;1.20;;;21.90;51.80;;;;;;4954183;27;88280;-59
2024/01/30 08:56:09;;;;;;;2.30;1.50;;;21.90;51.60;;;;;;4953420;28;88061;-59
2024/01/30 08:58:34;;;;;;;4.90;0.98;;;22.00;51.70;;;;;;4958024;28;89378;-59
2024/01/30 09:01:01;;;;;;;1.50;1.20;;;22.00;51.60;;;;;;4956326;27;87760;-59
2024/01/30 09:03:27;;;;;;;2.30;1.27;;;22.10;51.40;;;;;;4956120;28;86893;-58
2024/01/30 09:05:53;;;;;;;3.63;1.58;;;22.10;51.40;;;;;;4949893;28;87870;-59
2024/01/30 09:08:19;;;;;;;5.45;1.60;;;22.20;50.70;;;;;;4944671;28;88020;-60
2024/01/30 09:10:45;;;;;;;3.28;2.20;;;22.20;50.70;;;;;;4949671;28;88836;-60
2024/01/30 09:13:10;;;;;;;4.75;1.95;;;22.20;50.40;;;;;;4948638;28;87615;-58
2024/01/30 09:15:36;;;;;;;2.25;1.13;;;22.20;50.20;;;;;;4950250;28;88324;-60
2024/01/30 09:18:02;;;;;;;2.53;1.30;;;22.20;50.30;;;;;;4947487;28;89258;-60
2024/01/30 09:20:28;;;;;;;2.72;1.52;;;22.30;50.10;;;;;;4947406;28;88849;-59
2024/01/30 09:22:54;;;;;;;4.63;1.52;;;22.30;50.10;;;;;;4947915;28;88016;-59
2024/01/30 09:25:20;;;;;;;3.97;1.67;;;22.30;50.10;;;;;;4950234;28;87687;-58
2024/01/30 09:27:46;;;;;;;2.75;1.60;;;22.40;50.10;;;;;;4940984;28;88683;-59
2024/01/30 09:30:12;;;;;;;3.70;1.30;;;22.40;50.10;;;;;;4943491;28;88357;-59
2024/01/30 09:32:40;;;;;;;4.07;1.98;;;22.40;50.10;;;;;;4954142;27;88284;-59
2024/01/30 09:35:06;;;;;;;3.22;1.95;;;22.40;50.10;;;;;;4947404;28;87147;-56
2024/01/30 09:37:32;;;;;;;2.35;1.63;;;22.40;50.00;;;;;;4945234;28;87969;-58
2024/01/30 09:39:58;;;;;;;30.23;3.40;;;22.50;50.20;;;;;;4949790;28;87932;-59
2024/01/30 09:42:31;;;;;;;14.73;4.03;;;22.50;49.90;;;;;;4946134;28;88321;-58
2024/01/30 09:44:59;;;;;;;12.90;3.00;;;22.50;49.70;;;;;;4972016;28;88261;-57
2024/01/30 09:47:26;;;;;;;16.25;3.83;;;22.60;49.70;;;;;;4946114;28;89881;-59
2024/01/30 09:49:52;;;;;;;19.48;4.22;;;22.50;49.60;;;;;;4954617;28;88724;-59
2024/01/30 09:52:19;;;;;;;16.95;4.03;;;22.60;49.60;;;;;;4953928;28;87381;-57
2024/01/30 09:54:45;;;;;;;21.02;5.28;;;22.60;50.00;;;;;;4959990;28;87947;-58
2024/01/30 09:57:12;;;;;;;10.15;3.53;;;22.60;50.30;;;;;;4959753;28;87730;-57
2024/01/30 09:59:37;;;;;;;16.58;4.18;;;22.60;50.30;;;;;;4957179;28;88654;-55
2024/01/30 10:02:04;;;;;;;12.98;3.63;;;22.70;50.20;;;;;;4952177;28;88033;-57
2024/01/30 10:04:30;;;;;;;10.30;3.42;;;22.70;50.60;;;;;;4959301;28;87730;-58
2024/01/30 10:06:58;;;;;;;10.00;3.35;;;22.80;50.80;;;;;;4958064;28;89660;-58
2024/01/30 10:09:25;;;;;;;23.13;4.55;;;22.70;50.60;;;;;;4960144;28;88965;-58
2024/01/30 10:11:51;;;;;;;17.20;4.22;;;22.70;50.70;;;;;;4959097;28;87534;-58
2024/01/30 10:14:17;;;;;;;11.88;4.68;;;22.80;50.80;;;;;;4957001;27;87608;-57
2024/01/30 10:16:46;;;;;;;12.27;3.47;;;22.80;51.00;;;;;;4955047;28;88380;-58
2024/01/30 10:19:12;;;;;;;8.30;4.00;;;22.80;51.20;;;;;;4958380;28;89046;-57
2024/01/30 10:21:37;;;;;;;12.45;4.40;;;22.80;51.30;;;;;;4957146;28;87035;-58
2024/01/30 10:24:03;;;;;;;10.73;2.88;;;22.80;51.50;;;;;;4957729;27;87319;-58
2024/01/30 10:26:33;;;;;;;11.32;3.60;;;22.90;51.70;;;;;;4955338;27;88281;-58
2024/01/30 10:28:59;;;;;;;7.82;3.80;;;22.90;51.60;;;;;;4961789;28;89048;-57
2024/01/30 10:31:25;;;;;;;11.07;3.58;;;22.90;51.50;;;;;;4955210;28;88385;-58
2024/01/30 10:33:51;;;;;;;7.80;3.90;;;22.90;51.20;;;;;;4955671;27;87223;-58
2024/01/30 10:36:19;;;;;;;9.27;3.60;;;23.00;51.50;;;;;;4955686;28;87643;-58
2024/01/30 10:38:46;;;;;;;14.32;4.28;;;23.00;51.50;;;;;;4953254;28;88310;-58
2024/01/30 10:41:14;;;;;;;9.38;4.28;;;23.00;51.50;;;;;;4940464;28;87857;-59
2024/01/30 10:43:42;;;;;;;7.97;3.08;;;23.00;51.50;;;;;;4957220;28;87569;-59
2024/01/30 10:46:19;;;;;;;10.90;3.40;;;23.00;51.70;;;;;;4958758;27;88229;-59
2024/01/30 10:48:56;;;;;;;9.15;4.25;;;23.00;51.80;;;;;;4957532;27;87948;-58
2024/01/30 10:51:23;;;;;;;11.18;3.65;;;23.00;51.60;;;;;;4974190;28;88352;-59
2024/01/30 10:53:50;;;;;;;14.43;3.95;;;23.00;51.30;;;;;;4951003;28;87814;-58
2024/01/30 10:56:18;;;;;;;8.02;3.85;;;23.00;51.30;;;;;;4957194;27;89005;-58
2024/01/30 10:58:44;;;;;;;10.18;3.30;;;23.00;50.90;;;;;;4955649;28;88706;-58
2024/01/30 11:01:10;;;;;;;11.18;3.95;;;23.00;50.40;;;;;;4957499;28;87535;-58
2024/01/30 11:03:36;;;;;;;8.25;3.38;;;23.00;50.80;;;;;;4952994;28;87341;-58
2024/01/30 11:06:03;;;;;;;10.80;3.60;;;23.00;50.90;;;;;;4955677;28;88096;-56
2024/01/30 11:08:31;;;;;;;8.50;3.50;;;23.00;51.10;;;;;;4956023;28;88117;-57
2024/01/30 11:10:58;;;;;;;12.75;2.95;;;23.00;51.20;;;;;;4957625;28;87192;-58
2024/01/30 11:13:31;;;;;;;10.25;3.72;;;23.00;51.30;;;;;;4958243;28;87334;-57
2024/01/30 11:16:06;;;;;;;8.93;3.50;;;23.00;51.30;;;;;;4955237;28;88071;-58
2024/01/30 11:18:35;;;;;;;5.80;2.75;;;23.00;51.30;;;;;;4950294;28;89100;-58
2024/01/30 11:21:01;;;;;;;10.10;3.85;;;23.00;51.30;;;;;;4957924;28;88430;-58
2024/01/30 11:23:28;;;;;;;11.30;3.28;;;23.00;51.40;;;;;;4959145;27;87784;-58
2024/01/30 11:25:55;;;;;;;8.95;4.10;;;23.00;51.50;;;;;;4961425;28;88315;-58
2024/01/30 11:28:22;;;;;;;8.23;3.38;;;23.00;51.80;;;;;;4958463;28;87514;-58
2024/01/30 11:30:50;;;;;;;8.35;3.85;;;23.00;52.20;;;;;;4956824;27;87249;-58
2024/01/30 12:23:57;;;;;;;12.93;4.57;;;22.00;54.10;;;;;;6156327;22;1381295;-57
2024/01/30 12:26:25;;;;;;;10.30;4.20;;;21.90;55.40;;;;;;6156756;22;86630;-57
2024/01/30 12:28:54;;;;;;;8.38;3.88;;;22.00;55.30;;;;;;6191776;22;86268;-56
2024/01/30 12:31:26;;;;;;;9.52;4.50;;;22.10;54.30;;;;;;6193921;22;87969;-58
2024/01/30 12:33:52;;;;;;;7.60;4.40;;;22.10;54.00;;;;;;6196241;22;86245;-58
2024/01/30 12:36:18;;;;;;;6.95;3.58;;;22.10;53.90;;;;;;6197218;22;85795;-58
2024/01/30 12:38:44;;;;;;;8.82;3.70;;;22.10;54.00;;;;;;6196917;22;85767;-58
2024/01/30 12:41:10;;;;;;;9.07;4.00;;;22.10;54.00;;;;;;6195651;22;86054;-56
2024/01/30 12:43:36;;;;;;;9.05;3.85;;;22.20;54.10;;;;;;6193551;22;86441;-58
2024/01/30 12:46:03;;;;;;;8.93;3.88;;;22.20;54.20;;;;;;6169671;22;86000;-57
2024/01/30 12:48:31;;;;;;;9.30;3.92;;;22.20;54.10;;;;;;6169235;22;86379;-58
2024/01/30 12:50:59;;;;;;;7.05;3.47;;;22.20;54.00;;;;;;6167512;22;86570;-57
2024/01/30 12:53:25;;;;;;;7.40;3.58;;;22.30;54.00;;;;;;6168142;22;86793;-57
2024/01/30 12:55:50;;;;;;;7.97;3.47;;;22.30;53.90;;;;;;6196877;22;85555;-58
2024/01/30 12:58:16;;;;;;;9.75;4.10;;;22.30;53.80;;;;;;6194282;22;86034;-58
2024/01/30 13:00:44;;;;;;;6.05;3.53;;;22.40;53.80;;;;;;6196454;22;86736;-58
2024/01/30 13:03:10;;;;;;;8.25;3.65;;;22.40;53.50;;;;;;6168908;22;86991;-57
2024/01/30 13:05:36;;;;;;;6.38;2.88;;;22.40;53.30;;;;;;6196726;22;85858;-57
2024/01/30 13:08:03;;;;;;;7.00;3.00;;;22.40;52.90;;;;;;6168959;22;85840;-57
2024/01/30 13:10:31;;;;;;;8.15;3.30;;;22.40;52.90;;;;;;6168093;22;88836;-55
2024/01/30 13:13:12;;;;;;;4.75;2.88;;;22.50;52.90;;;;;;6166467;22;85612;-57
2024/01/30 13:15:38;;;;;;;5.63;3.22;;;22.50;52.70;;;;;;6166406;22;85558;-56
2024/01/30 13:18:06;;;;;;;5.90;3.00;;;22.50;52.60;;;;;;6158882;22;85825;-57
2024/01/30 13:20:32;;;;;;;4.67;2.93;;;22.60;52.50;;;;;;6162868;22;87784;-57
2024/01/30 13:22:58;;;;;;;5.05;3.28;;;22.60;52.40;;;;;;6166116;22;88041;-58
2024/01/30 13:25:23;;;;;;;5.55;2.92;;;22.60;52.20;;;;;;6188492;22;85941;-58
2024/01/30 13:27:51;;;;;;;4.93;3.20;;;22.60;52.30;;;;;;6189143;22;85892;-58
2024/01/30 13:30:17;;;;;;;8.63;3.00;;;22.60;52.20;;;;;;6093776;22;88321;-56
2024/01/30 13:32:44;;;;;;;6.38;2.97;;;22.60;52.10;;;;;;6115662;22;86793;-58
2024/01/30 13:35:10;;;;;;;4.78;2.65;;;22.60;51.90;;;;;;6113746;22;86104;-57
2024/01/30 13:37:35;;;;;;;4.53;2.85;;;22.70;51.80;;;;;;6121728;23;85733;-58